METAR

TAF

 




Rio de Janeiro / Galeão - Antonio Carlos Jobim, RJ - SBGL


25 de Abril de 2014 às 06:00 (UTC)


Tempo:

Céu parcialmente nublado

Temperatura:

22ºC

Umidade Relativa:

83%

Localização:
Ajuste do Altímetro:

1015 hPa

Visibilidade Horizontal Predominante:

> 10 Km

Direção e Velocidade do Vento:

310° 5,56 Km/h


Observação Meteorológica:

METAR SBGL 250600Z 31003KT 9999 SCT015 BKN070 22/19 Q1015=